sensor_id;sensor_type;location;lat;lon;timestamp;P1;durP1;ratioP1;P2;durP2;ratioP2
62362;SDS011;48396;48.426;1.500;2023-06-10T00:01:32;9.52;;;5.07;;
62362;SDS011;48396;48.426;1.500;2023-06-10T00:03:59;11.15;;;5.15;;
62362;SDS011;48396;48.426;1.500;2023-06-10T00:06:24;9.80;;;5.50;;
62362;SDS011;48396;48.426;1.500;2023-06-10T00:08:50;9.95;;;5.05;;
62362;SDS011;48396;48.426;1.500;2023-06-10T00:11:16;12.45;;;5.93;;
62362;SDS011;48396;48.426;1.500;2023-06-10T00:13:42;7.60;;;4.63;;
62362;SDS011;48396;48.426;1.500;2023-06-10T00:16:07;13.63;;;5.22;;
62362;SDS011;48396;48.426;1.500;2023-06-10T00:18:52;9.88;;;5.20;;
62362;SDS011;48396;48.426;1.500;2023-06-10T00:21:17;10.23;;;5.30;;
62362;SDS011;48396;48.426;1.500;2023-06-10T00:23:44;8.13;;;4.80;;
62362;SDS011;48396;48.426;1.500;2023-06-10T00:26:28;12.00;;;5.60;;
62362;SDS011;48396;48.426;1.500;2023-06-10T00:28:53;10.20;;;5.10;;
62362;SDS011;48396;48.426;1.500;2023-06-10T00:31:19;10.32;;;5.90;;
62362;SDS011;48396;48.426;1.500;2023-06-10T00:33:45;11.75;;;5.57;;
62362;SDS011;48396;48.426;1.500;2023-06-10T00:36:10;9.55;;;5.00;;
62362;SDS011;48396;48.426;1.500;2023-06-10T00:38:36;7.55;;;5.13;;
62362;SDS011;48396;48.426;1.500;2023-06-10T00:41:02;10.23;;;5.78;;
62362;SDS011;48396;48.426;1.500;2023-06-10T00:43:27;13.93;;;5.50;;
62362;SDS011;48396;48.426;1.500;2023-06-10T00:45:53;8.90;;;4.93;;
62362;SDS011;48396;48.426;1.500;2023-06-10T00:48:19;10.52;;;5.40;;
62362;SDS011;48396;48.426;1.500;2023-06-10T00:50:45;11.23;;;5.55;;
62362;SDS011;48396;48.426;1.500;2023-06-10T00:53:12;8.27;;;5.07;;
62362;SDS011;48396;48.426;1.500;2023-06-10T00:55:38;8.48;;;5.00;;
62362;SDS011;48396;48.426;1.500;2023-06-10T00:58:05;12.20;;;5.40;;
62362;SDS011;48396;48.426;1.500;2023-06-10T01:00:30;8.63;;;5.07;;
62362;SDS011;48396;48.426;1.500;2023-06-10T01:02:56;11.05;;;5.15;;
62362;SDS011;48396;48.426;1.500;2023-06-10T01:05:22;10.20;;;4.65;;
62362;SDS011;48396;48.426;1.500;2023-06-10T01:07:50;9.02;;;4.78;;
62362;SDS011;48396;48.426;1.500;2023-06-10T01:10:36;9.23;;;4.80;;
62362;SDS011;48396;48.426;1.500;2023-06-10T01:13:06;8.43;;;4.40;;
62362;SDS011;48396;48.426;1.500;2023-06-10T01:15:36;10.63;;;4.60;;
62362;SDS011;48396;48.426;1.500;2023-06-10T01:18:03;10.27;;;4.63;;
62362;SDS011;48396;48.426;1.500;2023-06-10T01:20:33;11.43;;;4.75;;
62362;SDS011;48396;48.426;1.500;2023-06-10T01:23:02;8.90;;;4.57;;
62362;SDS011;48396;48.426;1.500;2023-06-10T01:25:28;10.18;;;4.80;;
62362;SDS011;48396;48.426;1.500;2023-06-10T01:28:13;10.00;;;5.22;;
62362;SDS011;48396;48.426;1.500;2023-06-10T01:30:47;10.23;;;5.28;;
62362;SDS011;48396;48.426;1.500;2023-06-10T01:33:26;10.48;;;5.00;;
62362;SDS011;48396;48.426;1.500;2023-06-10T01:35:55;10.77;;;5.55;;
62362;SDS011;48396;48.426;1.500;2023-06-10T01:38:26;9.23;;;4.90;;
62362;SDS011;48396;48.426;1.500;2023-06-10T01:40:54;7.80;;;4.55;;
62362;SDS011;48396;48.426;1.500;2023-06-10T01:43:21;9.45;;;4.47;;
62362;SDS011;48396;48.426;1.500;2023-06-10T01:45:47;8.65;;;4.78;;
62362;SDS011;48396;48.426;1.500;2023-06-10T01:48:13;8.75;;;5.25;;
62362;SDS011;48396;48.426;1.500;2023-06-10T01:50:38;11.13;;;5.25;;
62362;SDS011;48396;48.426;1.500;2023-06-10T01:53:04;9.48;;;5.18;;
62362;SDS011;48396;48.426;1.500;2023-06-10T01:55:33;9.10;;;4.35;;
62362;SDS011;48396;48.426;1.500;2023-06-10T01:57:58;11.05;;;4.60;;
62362;SDS011;48396;48.426;1.500;2023-06-10T02:00:24;8.95;;;4.45;;
62362;SDS011;48396;48.426;1.500;2023-06-10T02:02:49;7.47;;;4.47;;
62362;SDS011;48396;48.426;1.500;2023-06-10T02:05:15;9.48;;;4.22;;
62362;SDS011;48396;48.426;1.500;2023-06-10T02:07:41;8.98;;;4.38;;
62362;SDS011;48396;48.426;1.500;2023-06-10T02:10:07;7.45;;;4.07;;
62362;SDS011;48396;48.426;1.500;2023-06-10T02:12:33;9.20;;;4.40;;
62362;SDS011;48396;48.426;1.500;2023-06-10T02:14:58;10.93;;;5.38;;
62362;SDS011;48396;48.426;1.500;2023-06-10T02:17:42;11.88;;;5.50;;
62362;SDS011;48396;48.426;1.500;2023-06-10T02:20:09;9.63;;;5.30;;
62362;SDS011;48396;48.426;1.500;2023-06-10T02:22:36;8.95;;;4.85;;
62362;SDS011;48396;48.426;1.500;2023-06-10T02:25:02;13.32;;;5.50;;
62362;SDS011;48396;48.426;1.500;2023-06-10T02:27:28;8.82;;;4.75;;
62362;SDS011;48396;48.426;1.500;2023-06-10T02:29:55;9.57;;;4.25;;
62362;SDS011;48396;48.426;1.500;2023-06-10T02:32:21;9.18;;;4.72;;
62362;SDS011;48396;48.426;1.500;2023-06-10T02:34:47;13.95;;;5.07;;
62362;SDS011;48396;48.426;1.500;2023-06-10T02:37:14;7.97;;;4.90;;
62362;SDS011;48396;48.426;1.500;2023-06-10T02:39:40;7.45;;;4.20;;
62362;SDS011;48396;48.426;1.500;2023-06-10T02:42:06;10.52;;;4.30;;
62362;SDS011;48396;48.426;1.500;2023-06-10T02:44:32;10.82;;;4.57;;
62362;SDS011;48396;48.426;1.500;2023-06-10T02:46:57;11.82;;;4.53;;
62362;SDS011;48396;48.426;1.500;2023-06-10T02:49:23;11.13;;;4.57;;
62362;SDS011;48396;48.426;1.500;2023-06-10T02:51:49;13.20;;;5.28;;
62362;SDS011;48396;48.426;1.500;2023-06-10T02:54:18;9.52;;;5.20;;
62362;SDS011;48396;48.426;1.500;2023-06-10T02:56:44;9.32;;;4.80;;
62362;SDS011;48396;48.426;1.500;2023-06-10T02:59:10;9.82;;;5.00;;
62362;SDS011;48396;48.426;1.500;2023-06-10T03:01:36;8.85;;;4.82;;
62362;SDS011;48396;48.426;1.500;2023-06-10T03:04:03;10.63;;;5.10;;
62362;SDS011;48396;48.426;1.500;2023-06-10T03:06:29;10.90;;;5.65;;
62362;SDS011;48396;48.426;1.500;2023-06-10T03:08:55;9.48;;;4.95;;
62362;SDS011;48396;48.426;1.500;2023-06-10T03:11:21;10.15;;;5.53;;
62362;SDS011;48396;48.426;1.500;2023-06-10T03:13:46;9.68;;;4.95;;
62362;SDS011;48396;48.426;1.500;2023-06-10T03:16:12;8.35;;;4.53;;
62362;SDS011;48396;48.426;1.500;2023-06-10T03:18:37;8.57;;;4.45;;
62362;SDS011;48396;48.426;1.500;2023-06-10T03:21:03;7.95;;;4.93;;
62362;SDS011;48396;48.426;1.500;2023-06-10T03:23:29;11.77;;;4.60;;
62362;SDS011;48396;48.426;1.500;2023-06-10T03:25:54;13.43;;;4.88;;
62362;SDS011;48396;48.426;1.500;2023-06-10T03:28:20;8.27;;;4.47;;
62362;SDS011;48396;48.426;1.500;2023-06-10T03:30:46;11.15;;;5.22;;
62362;SDS011;48396;48.426;1.500;2023-06-10T03:33:12;16.02;;;4.85;;
62362;SDS011;48396;48.426;1.500;2023-06-10T03:35:38;9.75;;;4.53;;
62362;SDS011;48396;48.426;1.500;2023-06-10T03:38:04;15.93;;;5.97;;
62362;SDS011;48396;48.426;1.500;2023-06-10T03:40:31;11.63;;;5.72;;
62362;SDS011;48396;48.426;1.500;2023-06-10T03:42:57;12.23;;;5.40;;
62362;SDS011;48396;48.426;1.500;2023-06-10T03:45:23;15.18;;;5.85;;
62362;SDS011;48396;48.426;1.500;2023-06-10T03:47:49;11.23;;;5.30;;
62362;SDS011;48396;48.426;1.500;2023-06-10T03:50:15;11.75;;;5.65;;
62362;SDS011;48396;48.426;1.500;2023-06-10T03:52:41;10.77;;;5.05;;
62362;SDS011;48396;48.426;1.500;2023-06-10T03:55:06;14.55;;;6.50;;
62362;SDS011;48396;48.426;1.500;2023-06-10T03:57:32;10.38;;;5.10;;
62362;SDS011;48396;48.426;1.500;2023-06-10T04:00:17;10.80;;;4.95;;
62362;SDS011;48396;48.426;1.500;2023-06-10T04:02:43;12.63;;;4.95;;
62362;SDS011;48396;48.426;1.500;2023-06-10T04:07:58;11.10;;;4.82;;
62362;SDS011;48396;48.426;1.500;2023-06-10T04:10:24;11.27;;;5.20;;
62362;SDS011;48396;48.426;1.500;2023-06-10T04:12:50;8.65;;;4.32;;
62362;SDS011;48396;48.426;1.500;2023-06-10T04:15:16;8.00;;;4.47;;
62362;SDS011;48396;48.426;1.500;2023-06-10T04:17:41;8.07;;;4.50;;
62362;SDS011;48396;48.426;1.500;2023-06-10T04:20:07;8.68;;;4.45;;
62362;SDS011;48396;48.426;1.500;2023-06-10T04:22:34;10.05;;;4.75;;
62362;SDS011;48396;48.426;1.500;2023-06-10T04:25:01;10.25;;;4.97;;
62362;SDS011;48396;48.426;1.500;2023-06-10T04:27:27;8.25;;;4.53;;
62362;SDS011;48396;48.426;1.500;2023-06-10T04:29:53;12.80;;;4.53;;
62362;SDS011;48396;48.426;1.500;2023-06-10T04:32:19;8.10;;;4.20;;
62362;SDS011;48396;48.426;1.500;2023-06-10T04:34:45;12.57;;;4.65;;
62362;SDS011;48396;48.426;1.500;2023-06-10T04:37:10;7.43;;;4.28;;
62362;SDS011;48396;48.426;1.500;2023-06-10T04:39:36;9.38;;;4.25;;
62362;SDS011;48396;48.426;1.500;2023-06-10T04:42:01;9.63;;;4.63;;
62362;SDS011;48396;48.426;1.500;2023-06-10T04:44:27;7.28;;;4.53;;
62362;SDS011;48396;48.426;1.500;2023-06-10T04:46:52;11.40;;;5.20;;
62362;SDS011;48396;48.426;1.500;2023-06-10T04:49:18;10.32;;;4.72;;
62362;SDS011;48396;48.426;1.500;2023-06-10T04:51:43;8.18;;;4.18;;
62362;SDS011;48396;48.426;1.500;2023-06-10T04:54:09;11.43;;;4.20;;
62362;SDS011;48396;48.426;1.500;2023-06-10T04:56:35;8.32;;;4.45;;
62362;SDS011;48396;48.426;1.500;2023-06-10T04:59:01;9.30;;;4.25;;
62362;SDS011;48396;48.426;1.500;2023-06-10T05:01:26;7.10;;;4.55;;
62362;SDS011;48396;48.426;1.500;2023-06-10T05:03:52;8.35;;;4.32;;
62362;SDS011;48396;48.426;1.500;2023-06-10T05:06:18;11.05;;;4.68;;
62362;SDS011;48396;48.426;1.500;2023-06-10T05:08:43;12.77;;;4.80;;
62362;SDS011;48396;48.426;1.500;2023-06-10T05:11:09;12.23;;;5.68;;
62362;SDS011;48396;48.426;1.500;2023-06-10T05:16:19;15.80;;;6.85;;
62362;SDS011;48396;48.426;1.500;2023-06-10T05:18:44;16.23;;;6.78;;
62362;SDS011;48396;48.426;1.500;2023-06-10T05:21:10;17.60;;;8.45;;
62362;SDS011;48396;48.426;1.500;2023-06-10T05:23:36;15.80;;;6.85;;
62362;SDS011;48396;48.426;1.500;2023-06-10T05:26:02;21.20;;;8.55;;
62362;SDS011;48396;48.426;1.500;2023-06-10T05:28:27;15.85;;;7.10;;
62362;SDS011;48396;48.426;1.500;2023-06-10T05:30:53;18.15;;;7.80;;
62362;SDS011;48396;48.426;1.500;2023-06-10T05:33:18;18.33;;;7.43;;
62362;SDS011;48396;48.426;1.500;2023-06-10T05:35:44;15.02;;;6.85;;
62362;SDS011;48396;48.426;1.500;2023-06-10T05:38:10;17.77;;;7.53;;
62362;SDS011;48396;48.426;1.500;2023-06-10T05:40:35;17.83;;;8.20;;
62362;SDS011;48396;48.426;1.500;2023-06-10T05:43:01;18.85;;;8.40;;
62362;SDS011;48396;48.426;1.500;2023-06-10T05:45:27;18.27;;;8.05;;
62362;SDS011;48396;48.426;1.500;2023-06-10T05:47:52;17.63;;;7.55;;
62362;SDS011;48396;48.426;1.500;2023-06-10T05:50:18;17.27;;;8.57;;
62362;SDS011;48396;48.426;1.500;2023-06-10T05:55:28;17.42;;;8.02;;
62362;SDS011;48396;48.426;1.500;2023-06-10T05:58:00;15.90;;;7.78;;
62362;SDS011;48396;48.426;1.500;2023-06-10T06:00:26;14.05;;;7.47;;
62362;SDS011;48396;48.426;1.500;2023-06-10T06:05:36;17.88;;;7.90;;
62362;SDS011;48396;48.426;1.500;2023-06-10T06:08:06;14.85;;;7.65;;
62362;SDS011;48396;48.426;1.500;2023-06-10T06:10:32;15.80;;;7.60;;
62362;SDS011;48396;48.426;1.500;2023-06-10T06:12:58;17.20;;;7.78;;
62362;SDS011;48396;48.426;1.500;2023-06-10T06:15:43;18.95;;;9.30;;
62362;SDS011;48396;48.426;1.500;2023-06-10T06:18:09;15.18;;;7.40;;
62362;SDS011;48396;48.426;1.500;2023-06-10T06:20:35;15.32;;;7.43;;
62362;SDS011;48396;48.426;1.500;2023-06-10T06:23:00;16.70;;;8.73;;
62362;SDS011;48396;48.426;1.500;2023-06-10T06:25:26;19.85;;;8.90;;
62362;SDS011;48396;48.426;1.500;2023-06-10T06:27:52;19.85;;;10.00;;
62362;SDS011;48396;48.426;1.500;2023-06-10T06:30:17;19.42;;;10.38;;
62362;SDS011;48396;48.426;1.500;2023-06-10T06:32:43;20.23;;;10.68;;
62362;SDS011;48396;48.426;1.500;2023-06-10T06:35:08;20.38;;;10.10;;
62362;SDS011;48396;48.426;1.500;2023-06-10T06:37:34;20.00;;;11.35;;
62362;SDS011;48396;48.426;1.500;2023-06-10T06:40:01;21.33;;;11.00;;
62362;SDS011;48396;48.426;1.500;2023-06-10T06:42:28;17.30;;;9.10;;
62362;SDS011;48396;48.426;1.500;2023-06-10T06:44:54;18.58;;;10.25;;
62362;SDS011;48396;48.426;1.500;2023-06-10T06:47:20;18.45;;;9.30;;
62362;SDS011;48396;48.426;1.500;2023-06-10T06:49:46;20.52;;;9.93;;
62362;SDS011;48396;48.426;1.500;2023-06-10T06:52:12;19.23;;;10.63;;
62362;SDS011;48396;48.426;1.500;2023-06-10T06:54:38;20.42;;;10.60;;
62362;SDS011;48396;48.426;1.500;2023-06-10T06:57:04;19.33;;;10.18;;
62362;SDS011;48396;48.426;1.500;2023-06-10T06:59:49;20.98;;;12.18;;
62362;SDS011;48396;48.426;1.500;2023-06-10T07:02:14;20.77;;;11.63;;
62362;SDS011;48396;48.426;1.500;2023-06-10T07:04:40;19.98;;;10.70;;
62362;SDS011;48396;48.426;1.500;2023-06-10T07:07:07;17.33;;;9.77;;
62362;SDS011;48396;48.426;1.500;2023-06-10T07:09:33;20.08;;;11.73;;
62362;SDS011;48396;48.426;1.500;2023-06-10T07:11:59;18.40;;;9.63;;
62362;SDS011;48396;48.426;1.500;2023-06-10T07:14:24;18.63;;;10.23;;
62362;SDS011;48396;48.426;1.500;2023-06-10T07:17:09;18.90;;;10.40;;
62362;SDS011;48396;48.426;1.500;2023-06-10T07:19:35;22.15;;;12.75;;
62362;SDS011;48396;48.426;1.500;2023-06-10T07:22:01;18.50;;;10.23;;
62362;SDS011;48396;48.426;1.500;2023-06-10T07:27:11;20.50;;;10.57;;
62362;SDS011;48396;48.426;1.500;2023-06-10T07:29:36;17.55;;;10.35;;
62362;SDS011;48396;48.426;1.500;2023-06-10T07:32:03;17.40;;;9.70;;
62362;SDS011;48396;48.426;1.500;2023-06-10T07:34:29;17.02;;;9.52;;
62362;SDS011;48396;48.426;1.500;2023-06-10T07:36:54;19.70;;;10.57;;
62362;SDS011;48396;48.426;1.500;2023-06-10T07:39:20;18.95;;;10.30;;
62362;SDS011;48396;48.426;1.500;2023-06-10T07:41:45;17.73;;;8.98;;
62362;SDS011;48396;48.426;1.500;2023-06-10T07:46:55;15.32;;;8.07;;
62362;SDS011;48396;48.426;1.500;2023-06-10T07:49:22;15.05;;;8.57;;
62362;SDS011;48396;48.426;1.500;2023-06-10T07:51:49;14.65;;;8.10;;
62362;SDS011;48396;48.426;1.500;2023-06-10T07:54:15;18.55;;;9.77;;
62362;SDS011;48396;48.426;1.500;2023-06-10T07:56:40;13.75;;;7.97;;
62362;SDS011;48396;48.426;1.500;2023-06-10T07:59:06;13.05;;;7.45;;
62362;SDS011;48396;48.426;1.500;2023-06-10T08:01:32;15.70;;;8.02;;
62362;SDS011;48396;48.426;1.500;2023-06-10T08:03:58;14.55;;;7.40;;
62362;SDS011;48396;48.426;1.500;2023-06-10T08:06:23;14.50;;;8.20;;
62362;SDS011;48396;48.426;1.500;2023-06-10T08:08:49;12.50;;;7.40;;
62362;SDS011;48396;48.426;1.500;2023-06-10T08:11:14;14.15;;;7.93;;
62362;SDS011;48396;48.426;1.500;2023-06-10T08:13:40;17.23;;;8.50;;
62362;SDS011;48396;48.426;1.500;2023-06-10T08:16:06;13.88;;;7.45;;
62362;SDS011;48396;48.426;1.500;2023-06-10T08:18:32;14.48;;;8.00;;
62362;SDS011;48396;48.426;1.500;2023-06-10T08:20:58;13.48;;;7.00;;
62362;SDS011;48396;48.426;1.500;2023-06-10T08:23:24;13.32;;;7.28;;
62362;SDS011;48396;48.426;1.500;2023-06-10T08:25:50;11.80;;;6.65;;
62362;SDS011;48396;48.426;1.500;2023-06-10T08:28:16;15.07;;;7.15;;
62362;SDS011;48396;48.426;1.500;2023-06-10T08:30:41;12.48;;;6.35;;
62362;SDS011;48396;48.426;1.500;2023-06-10T08:33:07;11.65;;;6.18;;
62362;SDS011;48396;48.426;1.500;2023-06-10T08:35:33;14.55;;;7.82;;
62362;SDS011;48396;48.426;1.500;2023-06-10T08:37:58;14.57;;;8.05;;
62362;SDS011;48396;48.426;1.500;2023-06-10T08:40:43;13.82;;;7.63;;
62362;SDS011;48396;48.426;1.500;2023-06-10T08:45:58;11.05;;;5.93;;
62362;SDS011;48396;48.426;1.500;2023-06-10T08:48:26;12.27;;;6.78;;
62362;SDS011;48396;48.426;1.500;2023-06-10T08:50:55;9.30;;;5.45;;
62362;SDS011;48396;48.426;1.500;2023-06-10T08:53:22;11.82;;;6.15;;
62362;SDS011;48396;48.426;1.500;2023-06-10T08:55:52;12.35;;;6.28;;
62362;SDS011;48396;48.426;1.500;2023-06-10T08:58:21;12.32;;;6.95;;
62362;SDS011;48396;48.426;1.500;2023-06-10T09:00:47;10.55;;;6.05;;
62362;SDS011;48396;48.426;1.500;2023-06-10T09:03:13;11.27;;;6.07;;
62362;SDS011;48396;48.426;1.500;2023-06-10T09:05:39;12.85;;;6.82;;
62362;SDS011;48396;48.426;1.500;2023-06-10T09:08:05;14.05;;;6.43;;
62362;SDS011;48396;48.426;1.500;2023-06-10T09:10:32;10.80;;;6.00;;
62362;SDS011;48396;48.426;1.500;2023-06-10T09:12:58;11.35;;;6.60;;
62362;SDS011;48396;48.426;1.500;2023-06-10T09:15:23;10.93;;;6.25;;
62362;SDS011;48396;48.426;1.500;2023-06-10T09:17:49;9.13;;;5.78;;
62362;SDS011;48396;48.426;1.500;2023-06-10T09:20:16;9.63;;;6.03;;
62362;SDS011;48396;48.426;1.500;2023-06-10T09:22:42;8.73;;;5.10;;
62362;SDS011;48396;48.426;1.500;2023-06-10T09:25:11;7.47;;;4.80;;
62362;SDS011;48396;48.426;1.500;2023-06-10T09:27:44;7.93;;;4.70;;
62362;SDS011;48396;48.426;1.500;2023-06-10T09:30:34;8.38;;;5.15;;
62362;SDS011;48396;48.426;1.500;2023-06-10T09:33:01;7.85;;;4.88;;
62362;SDS011;48396;48.426;1.500;2023-06-10T09:35:28;7.72;;;4.80;;
62362;SDS011;48396;48.426;1.500;2023-06-10T09:37:56;8.85;;;5.05;;
62362;SDS011;48396;48.426;1.500;2023-06-10T09:40:22;10.20;;;5.50;;
62362;SDS011;48396;48.426;1.500;2023-06-10T09:42:58;5.93;;;4.40;;
62362;SDS011;48396;48.426;1.500;2023-06-10T09:45:31;8.63;;;4.88;;
62362;SDS011;48396;48.426;1.500;2023-06-10T09:47:57;10.00;;;5.10;;
62362;SDS011;48396;48.426;1.500;2023-06-10T09:50:23;10.02;;;5.28;;
62362;SDS011;48396;48.426;1.500;2023-06-10T09:52:48;12.07;;;5.68;;
62362;SDS011;48396;48.426;1.500;2023-06-10T09:55:16;8.57;;;4.80;;
62362;SDS011;48396;48.426;1.500;2023-06-10T09:57:42;6.05;;;4.43;;
62362;SDS011;48396;48.426;1.500;2023-06-10T10:00:14;6.75;;;4.35;;
62362;SDS011;48396;48.426;1.500;2023-06-10T10:02:51;7.03;;;4.50;;
62362;SDS011;48396;48.426;1.500;2023-06-10T10:05:19;8.00;;;4.80;;
62362;SDS011;48396;48.426;1.500;2023-06-10T10:07:47;6.57;;;4.53;;
62362;SDS011;48396;48.426;1.500;2023-06-10T10:10:17;8.18;;;4.57;;
62362;SDS011;48396;48.426;1.500;2023-06-10T10:12:43;7.68;;;4.65;;
62362;SDS011;48396;48.426;1.500;2023-06-10T10:15:12;6.57;;;4.53;;
62362;SDS011;48396;48.426;1.500;2023-06-10T10:17:39;7.78;;;4.10;;
62362;SDS011;48396;48.426;1.500;2023-06-10T10:20:12;6.20;;;4.07;;
62362;SDS011;48396;48.426;1.500;2023-06-10T10:22:39;5.80;;;3.95;;
62362;SDS011;48396;48.426;1.500;2023-06-10T10:25:10;5.43;;;4.03;;
62362;SDS011;48396;48.426;1.500;2023-06-10T10:30:21;5.03;;;3.63;;
62362;SDS011;48396;48.426;1.500;2023-06-10T10:32:58;7.28;;;3.85;;
62362;SDS011;48396;48.426;1.500;2023-06-10T10:35:30;7.03;;;4.40;;
62362;SDS011;48396;48.426;1.500;2023-06-10T10:37:57;5.53;;;3.83;;
62362;SDS011;48396;48.426;1.500;2023-06-10T10:40:23;8.10;;;4.18;;
62362;SDS011;48396;48.426;1.500;2023-06-10T10:42:50;5.93;;;3.63;;
62362;SDS011;48396;48.426;1.500;2023-06-10T10:45:17;5.95;;;4.03;;
62362;SDS011;48396;48.426;1.500;2023-06-10T10:47:43;5.25;;;3.80;;
62362;SDS011;48396;48.426;1.500;2023-06-10T10:50:17;5.45;;;3.70;;
62362;SDS011;48396;48.426;1.500;2023-06-10T10:52:54;5.05;;;3.40;;
62362;SDS011;48396;48.426;1.500;2023-06-10T10:55:20;5.45;;;3.60;;
62362;SDS011;48396;48.426;1.500;2023-06-10T11:00:35;4.90;;;3.75;;
62362;SDS011;48396;48.426;1.500;2023-06-10T11:05:47;5.90;;;4.07;;
62362;SDS011;48396;48.426;1.500;2023-06-10T11:08:59;7.50;;;4.35;;
62362;SDS011;48396;48.426;1.500;2023-06-10T11:10:59;5.55;;;3.78;;
62362;SDS011;48396;48.426;1.500;2023-06-10T11:13:26;6.65;;;4.30;;
62362;SDS011;48396;48.426;1.500;2023-06-10T11:15:52;5.85;;;4.00;;
62362;SDS011;48396;48.426;1.500;2023-06-10T11:21:06;5.70;;;3.55;;
62362;SDS011;48396;48.426;1.500;2023-06-10T11:31:19;4.63;;;3.53;;
62362;SDS011;48396;48.426;1.500;2023-06-10T11:33:51;3.67;;;3.15;;
62362;SDS011;48396;48.426;1.500;2023-06-10T11:36:26;4.43;;;3.40;;
62362;SDS011;48396;48.426;1.500;2023-06-10T11:38:59;6.05;;;3.53;;
62362;SDS011;48396;48.426;1.500;2023-06-10T11:41:27;6.15;;;3.38;;
62362;SDS011;48396;48.426;1.500;2023-06-10T11:43:54;4.97;;;3.38;;
62362;SDS011;48396;48.426;1.500;2023-06-10T11:46:23;5.47;;;3.55;;
62362;SDS011;48396;48.426;1.500;2023-06-10T11:48:52;4.15;;;3.20;;
62362;SDS011;48396;48.426;1.500;2023-06-10T11:51:19;5.35;;;3.80;;
62362;SDS011;48396;48.426;1.500;2023-06-10T11:53:48;6.97;;;4.20;;
62362;SDS011;48396;48.426;1.500;2023-06-10T11:56:32;5.97;;;3.80;;
62362;SDS011;48396;48.426;1.500;2023-06-10T11:59:05;5.65;;;4.13;;
62362;SDS011;48396;48.426;1.500;2023-06-10T12:01:35;6.40;;;4.35;;
62362;SDS011;48396;48.426;1.500;2023-06-10T12:04:09;5.13;;;3.90;;
62362;SDS011;48396;48.426;1.500;2023-06-10T12:06:44;5.45;;;4.07;;
62362;SDS011;48396;48.426;1.500;2023-06-10T12:09:23;6.03;;;4.05;;
62362;SDS011;48396;48.426;1.500;2023-06-10T12:12:00;5.75;;;4.10;;
62362;SDS011;48396;48.426;1.500;2023-06-10T12:19:57;5.95;;;3.80;;
62362;SDS011;48396;48.426;1.500;2023-06-10T12:22:24;4.75;;;3.10;;
62362;SDS011;48396;48.426;1.500;2023-06-10T12:25:04;5.63;;;4.05;;
62362;SDS011;48396;48.426;1.500;2023-06-10T12:27:31;8.13;;;4.00;;
62362;SDS011;48396;48.426;1.500;2023-06-10T12:29:59;5.13;;;3.72;;
62362;SDS011;48396;48.426;1.500;2023-06-10T12:32:39;5.05;;;3.50;;
62362;SDS011;48396;48.426;1.500;2023-06-10T12:35:10;3.58;;;3.20;;
62362;SDS011;48396;48.426;1.500;2023-06-10T12:37:38;5.50;;;3.65;;
62362;SDS011;48396;48.426;1.500;2023-06-10T12:40:04;6.15;;;3.60;;
62362;SDS011;48396;48.426;1.500;2023-06-10T12:42:31;6.28;;;3.58;;
62362;SDS011;48396;48.426;1.500;2023-06-10T12:45:00;6.00;;;3.70;;
62362;SDS011;48396;48.426;1.500;2023-06-10T12:47:29;5.10;;;3.10;;
62362;SDS011;48396;48.426;1.500;2023-06-10T12:50:00;4.57;;;3.50;;
62362;SDS011;48396;48.426;1.500;2023-06-10T12:52:28;5.05;;;3.65;;
62362;SDS011;48396;48.426;1.500;2023-06-10T12:54:54;3.72;;;3.10;;
62362;SDS011;48396;48.426;1.500;2023-06-10T12:57:22;5.63;;;3.28;;
62362;SDS011;48396;48.426;1.500;2023-06-10T12:59:48;4.18;;;3.47;;
62362;SDS011;48396;48.426;1.500;2023-06-10T13:02:18;4.38;;;3.20;;
62362;SDS011;48396;48.426;1.500;2023-06-10T13:04:45;4.07;;;3.42;;
62362;SDS011;48396;48.426;1.500;2023-06-10T13:07:10;4.10;;;3.28;;
62362;SDS011;48396;48.426;1.500;2023-06-10T13:09:36;4.05;;;3.33;;
62362;SDS011;48396;48.426;1.500;2023-06-10T13:12:02;5.93;;;3.30;;
62362;SDS011;48396;48.426;1.500;2023-06-10T13:14:28;4.22;;;3.30;;
62362;SDS011;48396;48.426;1.500;2023-06-10T13:16:54;5.10;;;3.50;;
62362;SDS011;48396;48.426;1.500;2023-06-10T13:19:20;3.45;;;3.13;;
62362;SDS011;48396;48.426;1.500;2023-06-10T13:21:48;4.68;;;3.30;;
62362;SDS011;48396;48.426;1.500;2023-06-10T13:24:14;4.65;;;3.35;;
62362;SDS011;48396;48.426;1.500;2023-06-10T13:26:40;3.70;;;2.97;;
62362;SDS011;48396;48.426;1.500;2023-06-10T13:29:05;4.07;;;2.75;;
62362;SDS011;48396;48.426;1.500;2023-06-10T13:31:32;3.70;;;3.08;;
62362;SDS011;48396;48.426;1.500;2023-06-10T13:33:58;4.72;;;3.00;;
62362;SDS011;48396;48.426;1.500;2023-06-10T13:36:24;4.10;;;2.97;;
62362;SDS011;48396;48.426;1.500;2023-06-10T13:38:50;4.20;;;3.05;;
62362;SDS011;48396;48.426;1.500;2023-06-10T13:41:15;4.28;;;3.00;;
62362;SDS011;48396;48.426;1.500;2023-06-10T13:43:41;5.13;;;3.00;;
62362;SDS011;48396;48.426;1.500;2023-06-10T13:46:07;5.15;;;2.72;;
62362;SDS011;48396;48.426;1.500;2023-06-10T13:48:32;4.35;;;2.70;;
62362;SDS011;48396;48.426;1.500;2023-06-10T13:50:58;3.50;;;2.72;;
62362;SDS011;48396;48.426;1.500;2023-06-10T13:53:25;3.83;;;2.60;;
62362;SDS011;48396;48.426;1.500;2023-06-10T13:55:50;4.07;;;3.00;;
62362;SDS011;48396;48.426;1.500;2023-06-10T13:58:16;3.83;;;2.80;;
62362;SDS011;48396;48.426;1.500;2023-06-10T14:00:41;3.78;;;2.63;;
62362;SDS011;48396;48.426;1.500;2023-06-10T14:03:07;3.40;;;3.10;;
62362;SDS011;48396;48.426;1.500;2023-06-10T14:05:33;3.03;;;2.70;;
62362;SDS011;48396;48.426;1.500;2023-06-10T14:07:59;3.10;;;2.80;;
62362;SDS011;48396;48.426;1.500;2023-06-10T14:10:25;4.00;;;2.92;;
62362;SDS011;48396;48.426;1.500;2023-06-10T14:12:51;3.13;;;2.70;;
62362;SDS011;48396;48.426;1.500;2023-06-10T14:15:16;3.35;;;2.97;;
62362;SDS011;48396;48.426;1.500;2023-06-10T14:17:42;3.38;;;3.00;;
62362;SDS011;48396;48.426;1.500;2023-06-10T14:20:08;3.55;;;3.10;;
62362;SDS011;48396;48.426;1.500;2023-06-10T14:22:33;2.85;;;2.50;;
62362;SDS011;48396;48.426;1.500;2023-06-10T14:24:59;5.65;;;3.17;;
62362;SDS011;48396;48.426;1.500;2023-06-10T14:27:25;4.70;;;2.70;;
62362;SDS011;48396;48.426;1.500;2023-06-10T14:29:50;4.93;;;3.15;;
62362;SDS011;48396;48.426;1.500;2023-06-10T14:32:16;3.65;;;2.97;;
62362;SDS011;48396;48.426;1.500;2023-06-10T14:34:41;3.35;;;3.05;;
62362;SDS011;48396;48.426;1.500;2023-06-10T14:37:09;5.18;;;3.08;;
62362;SDS011;48396;48.426;1.500;2023-06-10T14:39:35;3.10;;;2.70;;
62362;SDS011;48396;48.426;1.500;2023-06-10T14:42:01;5.38;;;3.05;;
62362;SDS011;48396;48.426;1.500;2023-06-10T14:44:26;6.18;;;3.22;;
62362;SDS011;48396;48.426;1.500;2023-06-10T14:46:52;3.45;;;2.85;;
62362;SDS011;48396;48.426;1.500;2023-06-10T14:49:18;4.03;;;3.10;;
62362;SDS011;48396;48.426;1.500;2023-06-10T14:51:43;5.22;;;3.30;;
62362;SDS011;48396;48.426;1.500;2023-06-10T14:54:09;5.00;;;3.63;;
62362;SDS011;48396;48.426;1.500;2023-06-10T14:56:35;3.47;;;3.08;;
62362;SDS011;48396;48.426;1.500;2023-06-10T14:59:01;5.00;;;3.38;;
62362;SDS011;48396;48.426;1.500;2023-06-10T15:01:26;4.82;;;3.10;;
62362;SDS011;48396;48.426;1.500;2023-06-10T15:03:52;3.30;;;3.00;;
62362;SDS011;48396;48.426;1.500;2023-06-10T15:06:17;5.38;;;3.20;;
62362;SDS011;48396;48.426;1.500;2023-06-10T15:08:45;3.83;;;3.08;;
62362;SDS011;48396;48.426;1.500;2023-06-10T15:11:13;3.65;;;3.20;;
62362;SDS011;48396;48.426;1.500;2023-06-10T15:13:39;3.95;;;3.25;;
62362;SDS011;48396;48.426;1.500;2023-06-10T15:16:05;4.07;;;2.88;;
62362;SDS011;48396;48.426;1.500;2023-06-10T15:18:31;4.63;;;3.22;;
62362;SDS011;48396;48.426;1.500;2023-06-10T15:20:57;4.10;;;3.10;;
62362;SDS011;48396;48.426;1.500;2023-06-10T15:23:22;5.22;;;3.38;;
62362;SDS011;48396;48.426;1.500;2023-06-10T15:25:48;4.72;;;3.03;;